sensor_id;sensor_type;location;lat;lon;timestamp;P1;durP1;ratioP1;P2;durP2;ratioP2
62535;SDS011;48587;47.514;18.918;2022-07-29T00:04:36;3.40;;;2.80;;
62535;SDS011;48587;47.514;18.918;2022-07-29T00:09:37;6.20;;;2.90;;
62535;SDS011;48587;47.514;18.918;2022-07-29T00:14:38;5.40;;;3.00;;
62535;SDS011;48587;47.514;18.918;2022-07-29T00:19:39;3.40;;;3.00;;
62535;SDS011;48587;47.514;18.918;2022-07-29T00:24:40;5.70;;;3.20;;
62535;SDS011;48587;47.514;18.918;2022-07-29T00:29:41;7.00;;;3.60;;
62535;SDS011;48587;47.514;18.918;2022-07-29T00:34:43;3.60;;;2.90;;
62535;SDS011;48587;47.514;18.918;2022-07-29T00:40:02;5.90;;;2.70;;
62535;SDS011;48587;47.514;18.918;2022-07-29T00:45:04;5.50;;;3.20;;
62535;SDS011;48587;47.514;18.918;2022-07-29T00:50:06;5.70;;;3.20;;
62535;SDS011;48587;47.514;18.918;2022-07-29T00:55:09;6.70;;;3.90;;
62535;SDS011;48587;47.514;18.918;2022-07-29T01:00:12;4.80;;;2.80;;
62535;SDS011;48587;47.514;18.918;2022-07-29T01:05:23;3.60;;;3.10;;
62535;SDS011;48587;47.514;18.918;2022-07-29T01:10:24;3.60;;;2.80;;
62535;SDS011;48587;47.514;18.918;2022-07-29T01:15:26;4.90;;;3.10;;
62535;SDS011;48587;47.514;18.918;2022-07-29T01:31:18;5.90;;;3.30;;
62535;SDS011;48587;47.514;18.918;2022-07-29T01:36:30;4.60;;;3.00;;
62535;SDS011;48587;47.514;18.918;2022-07-29T01:41:34;5.70;;;3.60;;
62535;SDS011;48587;47.514;18.918;2022-07-29T01:46:38;4.70;;;3.30;;
62535;SDS011;48587;47.514;18.918;2022-07-29T01:51:51;4.30;;;3.40;;
62535;SDS011;48587;47.514;18.918;2022-07-29T01:56:54;5.10;;;3.60;;
62535;SDS011;48587;47.514;18.918;2022-07-29T02:01:57;3.90;;;3.40;;
62535;SDS011;48587;47.514;18.918;2022-07-29T02:07:01;4.20;;;3.30;;
62535;SDS011;48587;47.514;18.918;2022-07-29T02:12:04;4.60;;;3.70;;
62535;SDS011;48587;47.514;18.918;2022-07-29T02:17:06;4.80;;;3.00;;
62535;SDS011;48587;47.514;18.918;2022-07-29T02:22:08;4.40;;;3.50;;
62535;SDS011;48587;47.514;18.918;2022-07-29T02:27:09;5.20;;;3.40;;
62535;SDS011;48587;47.514;18.918;2022-07-29T02:32:13;4.10;;;3.70;;
62535;SDS011;48587;47.514;18.918;2022-07-29T02:37:14;5.40;;;3.40;;
62535;SDS011;48587;47.514;18.918;2022-07-29T02:42:17;6.00;;;3.80;;
62535;SDS011;48587;47.514;18.918;2022-07-29T02:47:32;5.90;;;3.50;;
62535;SDS011;48587;47.514;18.918;2022-07-29T02:52:47;6.80;;;3.70;;
62535;SDS011;48587;47.514;18.918;2022-07-29T03:03:32;5.40;;;3.70;;
62535;SDS011;48587;47.514;18.918;2022-07-29T03:08:35;5.40;;;3.70;;
62535;SDS011;48587;47.514;18.918;2022-07-29T03:13:36;5.10;;;3.70;;
62535;SDS011;48587;47.514;18.918;2022-07-29T03:18:37;4.40;;;3.60;;
62535;SDS011;48587;47.514;18.918;2022-07-29T03:23:42;5.10;;;3.40;;
62535;SDS011;48587;47.514;18.918;2022-07-29T03:28:44;4.60;;;3.60;;
62535;SDS011;48587;47.514;18.918;2022-07-29T03:33:45;4.80;;;3.90;;
62535;SDS011;48587;47.514;18.918;2022-07-29T03:38:46;4.70;;;3.70;;
62535;SDS011;48587;47.514;18.918;2022-07-29T03:43:48;6.40;;;3.80;;
62535;SDS011;48587;47.514;18.918;2022-07-29T03:48:50;6.50;;;4.10;;
62535;SDS011;48587;47.514;18.918;2022-07-29T03:53:53;5.30;;;3.60;;
62535;SDS011;48587;47.514;18.918;2022-07-29T03:58:54;5.10;;;3.90;;
62535;SDS011;48587;47.514;18.918;2022-07-29T04:03:56;5.70;;;3.60;;
62535;SDS011;48587;47.514;18.918;2022-07-29T04:08:56;5.20;;;3.50;;
62535;SDS011;48587;47.514;18.918;2022-07-29T04:13:57;4.50;;;3.60;;
62535;SDS011;48587;47.514;18.918;2022-07-29T04:18:58;5.70;;;3.90;;
62535;SDS011;48587;47.514;18.918;2022-07-29T04:23:59;6.10;;;3.60;;
62535;SDS011;48587;47.514;18.918;2022-07-29T04:29:00;5.30;;;3.80;;
62535;SDS011;48587;47.514;18.918;2022-07-29T04:34:01;5.20;;;3.70;;
62535;SDS011;48587;47.514;18.918;2022-07-29T04:39:02;8.20;;;3.80;;
62535;SDS011;48587;47.514;18.918;2022-07-29T04:44:03;4.60;;;3.40;;
62535;SDS011;48587;47.514;18.918;2022-07-29T04:49:06;4.30;;;3.60;;
62535;SDS011;48587;47.514;18.918;2022-07-29T04:54:06;4.60;;;3.80;;
62535;SDS011;48587;47.514;18.918;2022-07-29T04:59:07;9.80;;;3.70;;
62535;SDS011;48587;47.514;18.918;2022-07-29T05:04:09;4.70;;;3.80;;
62535;SDS011;48587;47.514;18.918;2022-07-29T05:09:10;4.90;;;3.60;;
62535;SDS011;48587;47.514;18.918;2022-07-29T05:14:11;4.30;;;3.60;;
62535;SDS011;48587;47.514;18.918;2022-07-29T05:19:11;6.40;;;3.80;;
62535;SDS011;48587;47.514;18.918;2022-07-29T05:24:12;5.80;;;4.50;;
62535;SDS011;48587;47.514;18.918;2022-07-29T05:29:13;21.10;;;5.40;;
62535;SDS011;48587;47.514;18.918;2022-07-29T05:34:14;4.10;;;3.50;;
62535;SDS011;48587;47.514;18.918;2022-07-29T05:39:15;4.20;;;3.20;;
62535;SDS011;48587;47.514;18.918;2022-07-29T05:44:16;6.20;;;3.70;;
62535;SDS011;48587;47.514;18.918;2022-07-29T05:49:17;5.50;;;3.90;;
62535;SDS011;48587;47.514;18.918;2022-07-29T05:54:18;4.70;;;3.70;;
62535;SDS011;48587;47.514;18.918;2022-07-29T05:59:19;12.50;;;4.20;;
62535;SDS011;48587;47.514;18.918;2022-07-29T06:04:20;5.70;;;3.80;;
62535;SDS011;48587;47.514;18.918;2022-07-29T06:09:21;10.50;;;4.00;;
62535;SDS011;48587;47.514;18.918;2022-07-29T06:14:23;12.70;;;5.00;;
62535;SDS011;48587;47.514;18.918;2022-07-29T06:19:25;11.40;;;4.10;;
62535;SDS011;48587;47.514;18.918;2022-07-29T06:24:26;6.50;;;4.00;;
62535;SDS011;48587;47.514;18.918;2022-07-29T06:29:27;16.20;;;4.40;;
62535;SDS011;48587;47.514;18.918;2022-07-29T06:34:28;5.80;;;3.90;;
62535;SDS011;48587;47.514;18.918;2022-07-29T06:39:29;5.10;;;3.60;;
62535;SDS011;48587;47.514;18.918;2022-07-29T06:44:30;14.80;;;4.90;;
62535;SDS011;48587;47.514;18.918;2022-07-29T06:49:31;5.20;;;3.70;;
62535;SDS011;48587;47.514;18.918;2022-07-29T06:54:32;5.80;;;3.70;;
62535;SDS011;48587;47.514;18.918;2022-07-29T06:59:33;4.90;;;3.80;;
62535;SDS011;48587;47.514;18.918;2022-07-29T07:04:34;4.40;;;3.90;;
62535;SDS011;48587;47.514;18.918;2022-07-29T07:09:35;9.90;;;4.10;;
62535;SDS011;48587;47.514;18.918;2022-07-29T07:14:36;7.00;;;4.00;;
62535;SDS011;48587;47.514;18.918;2022-07-29T07:19:37;6.10;;;4.00;;
62535;SDS011;48587;47.514;18.918;2022-07-29T07:24:39;5.40;;;3.60;;
62535;SDS011;48587;47.514;18.918;2022-07-29T07:29:39;7.70;;;3.70;;
62535;SDS011;48587;47.514;18.918;2022-07-29T07:34:42;8.80;;;4.10;;
62535;SDS011;48587;47.514;18.918;2022-07-29T07:39:43;6.80;;;3.70;;
62535;SDS011;48587;47.514;18.918;2022-07-29T07:44:44;5.30;;;4.00;;
62535;SDS011;48587;47.514;18.918;2022-07-29T07:49:46;5.40;;;3.70;;
62535;SDS011;48587;47.514;18.918;2022-07-29T07:54:47;19.20;;;4.70;;
62535;SDS011;48587;47.514;18.918;2022-07-29T07:59:48;7.20;;;4.00;;
62535;SDS011;48587;47.514;18.918;2022-07-29T08:04:49;7.60;;;3.50;;
62535;SDS011;48587;47.514;18.918;2022-07-29T08:09:50;6.50;;;3.50;;
62535;SDS011;48587;47.514;18.918;2022-07-29T08:14:51;6.50;;;3.40;;
62535;SDS011;48587;47.514;18.918;2022-07-29T08:19:52;7.40;;;3.80;;
62535;SDS011;48587;47.514;18.918;2022-07-29T08:24:53;7.20;;;4.30;;
62535;SDS011;48587;47.514;18.918;2022-07-29T08:29:55;6.90;;;3.60;;
62535;SDS011;48587;47.514;18.918;2022-07-29T08:34:57;11.40;;;4.00;;
62535;SDS011;48587;47.514;18.918;2022-07-29T08:39:57;4.40;;;3.40;;
62535;SDS011;48587;47.514;18.918;2022-07-29T08:44:58;4.70;;;3.40;;
62535;SDS011;48587;47.514;18.918;2022-07-29T08:49:59;10.50;;;3.80;;
62535;SDS011;48587;47.514;18.918;2022-07-29T08:55:00;11.70;;;3.80;;
62535;SDS011;48587;47.514;18.918;2022-07-29T09:00:04;9.40;;;3.60;;
62535;SDS011;48587;47.514;18.918;2022-07-29T09:05:06;4.80;;;3.40;;
62535;SDS011;48587;47.514;18.918;2022-07-29T09:10:07;10.70;;;3.80;;
62535;SDS011;48587;47.514;18.918;2022-07-29T09:15:09;5.10;;;3.10;;
62535;SDS011;48587;47.514;18.918;2022-07-29T09:20:17;7.00;;;3.60;;
62535;SDS011;48587;47.514;18.918;2022-07-29T09:30:33;5.90;;;3.30;;
62535;SDS011;48587;47.514;18.918;2022-07-29T09:35:34;8.00;;;2.90;;
62535;SDS011;48587;47.514;18.918;2022-07-29T09:40:35;4.60;;;2.80;;
62535;SDS011;48587;47.514;18.918;2022-07-29T09:45:36;15.90;;;3.90;;
62535;SDS011;48587;47.514;18.918;2022-07-29T09:50:41;3.90;;;2.80;;
62535;SDS011;48587;47.514;18.918;2022-07-29T09:55:50;6.80;;;3.00;;
62535;SDS011;48587;47.514;18.918;2022-07-29T10:00:52;5.80;;;2.90;;
62535;SDS011;48587;47.514;18.918;2022-07-29T10:06:05;6.80;;;3.20;;
62535;SDS011;48587;47.514;18.918;2022-07-29T10:11:14;10.30;;;3.10;;
62535;SDS011;48587;47.514;18.918;2022-07-29T10:16:16;8.90;;;2.90;;
62535;SDS011;48587;47.514;18.918;2022-07-29T10:21:18;5.10;;;2.70;;
62535;SDS011;48587;47.514;18.918;2022-07-29T10:26:19;4.70;;;2.70;;
62535;SDS011;48587;47.514;18.918;2022-07-29T10:31:34;6.60;;;2.90;;
62535;SDS011;48587;47.514;18.918;2022-07-29T10:36:49;4.80;;;2.40;;
62535;SDS011;48587;47.514;18.918;2022-07-29T10:42:25;5.60;;;2.60;;
62535;SDS011;48587;47.514;18.918;2022-07-29T10:47:28;7.60;;;2.90;;
62535;SDS011;48587;47.514;18.918;2022-07-29T11:08:43;5.40;;;2.60;;
62535;SDS011;48587;47.514;18.918;2022-07-29T11:24:13;3.70;;;2.60;;
62535;SDS011;48587;47.514;18.918;2022-07-29T11:29:21;15.70;;;4.80;;
62535;SDS011;48587;47.514;18.918;2022-07-29T11:34:25;6.20;;;2.80;;
62535;SDS011;48587;47.514;18.918;2022-07-29T11:39:29;6.30;;;2.80;;
62535;SDS011;48587;47.514;18.918;2022-07-29T11:50:08;6.20;;;2.30;;
62535;SDS011;48587;47.514;18.918;2022-07-29T11:55:11;5.50;;;2.30;;
62535;SDS011;48587;47.514;18.918;2022-07-29T12:00:30;3.80;;;2.10;;
62535;SDS011;48587;47.514;18.918;2022-07-29T12:05:41;3.20;;;2.30;;
62535;SDS011;48587;47.514;18.918;2022-07-29T12:10:43;5.90;;;2.40;;
62535;SDS011;48587;47.514;18.918;2022-07-29T12:15:56;5.80;;;2.30;;
62535;SDS011;48587;47.514;18.918;2022-07-29T12:20:59;6.70;;;2.20;;
62535;SDS011;48587;47.514;18.918;2022-07-29T12:26:04;4.30;;;2.50;;
62535;SDS011;48587;47.514;18.918;2022-07-29T12:31:08;5.10;;;2.20;;
62535;SDS011;48587;47.514;18.918;2022-07-29T12:36:14;6.00;;;2.60;;
62535;SDS011;48587;47.514;18.918;2022-07-29T12:41:15;3.60;;;2.30;;
62535;SDS011;48587;47.514;18.918;2022-07-29T12:46:16;4.30;;;2.20;;
62535;SDS011;48587;47.514;18.918;2022-07-29T12:51:17;6.50;;;2.30;;
62535;SDS011;48587;47.514;18.918;2022-07-29T12:56:19;6.70;;;2.30;;
62535;SDS011;48587;47.514;18.918;2022-07-29T13:01:20;6.00;;;2.20;;
62535;SDS011;48587;47.514;18.918;2022-07-29T13:06:41;5.00;;;2.40;;
62535;SDS011;48587;47.514;18.918;2022-07-29T13:11:44;5.30;;;2.20;;
62535;SDS011;48587;47.514;18.918;2022-07-29T13:22:27;2.80;;;2.10;;
62535;SDS011;48587;47.514;18.918;2022-07-29T13:27:30;4.20;;;2.20;;
62535;SDS011;48587;47.514;18.918;2022-07-29T13:32:32;4.60;;;2.00;;
62535;SDS011;48587;47.514;18.918;2022-07-29T13:37:42;3.50;;;2.50;;
62535;SDS011;48587;47.514;18.918;2022-07-29T13:42:43;3.80;;;2.40;;
62535;SDS011;48587;47.514;18.918;2022-07-29T13:47:44;3.00;;;2.00;;
62535;SDS011;48587;47.514;18.918;2022-07-29T13:52:45;8.70;;;2.60;;
62535;SDS011;48587;47.514;18.918;2022-07-29T13:57:48;4.50;;;2.70;;
62535;SDS011;48587;47.514;18.918;2022-07-29T14:02:49;4.00;;;2.70;;
62535;SDS011;48587;47.514;18.918;2022-07-29T14:07:50;8.60;;;2.80;;
62535;SDS011;48587;47.514;18.918;2022-07-29T14:12:51;9.70;;;3.30;;
62535;SDS011;48587;47.514;18.918;2022-07-29T14:17:52;14.50;;;3.10;;
62535;SDS011;48587;47.514;18.918;2022-07-29T14:22:53;6.00;;;2.50;;
62535;SDS011;48587;47.514;18.918;2022-07-29T14:27:54;5.50;;;3.10;;
62535;SDS011;48587;47.514;18.918;2022-07-29T14:32:55;4.20;;;2.40;;
62535;SDS011;48587;47.514;18.918;2022-07-29T14:37:56;9.50;;;2.70;;
62535;SDS011;48587;47.514;18.918;2022-07-29T14:42:57;3.60;;;2.30;;
62535;SDS011;48587;47.514;18.918;2022-07-29T14:47:58;7.90;;;2.60;;
62535;SDS011;48587;47.514;18.918;2022-07-29T14:53:00;6.10;;;2.10;;
62535;SDS011;48587;47.514;18.918;2022-07-29T14:58:02;6.80;;;2.80;;
62535;SDS011;48587;47.514;18.918;2022-07-29T15:03:03;3.50;;;2.30;;
62535;SDS011;48587;47.514;18.918;2022-07-29T15:08:04;3.60;;;2.10;;
62535;SDS011;48587;47.514;18.918;2022-07-29T15:13:05;6.10;;;2.80;;
62535;SDS011;48587;47.514;18.918;2022-07-29T15:18:06;6.50;;;2.80;;
62535;SDS011;48587;47.514;18.918;2022-07-29T15:23:07;7.60;;;3.00;;
62535;SDS011;48587;47.514;18.918;2022-07-29T15:28:09;5.80;;;2.50;;
62535;SDS011;48587;47.514;18.918;2022-07-29T15:33:10;6.40;;;2.90;;
62535;SDS011;48587;47.514;18.918;2022-07-29T15:38:11;4.70;;;2.60;;
62535;SDS011;48587;47.514;18.918;2022-07-29T15:43:12;4.80;;;2.50;;
62535;SDS011;48587;47.514;18.918;2022-07-29T15:48:13;6.00;;;2.80;;
62535;SDS011;48587;47.514;18.918;2022-07-29T15:53:14;5.10;;;2.70;;
62535;SDS011;48587;47.514;18.918;2022-07-29T15:58:15;6.20;;;2.60;;
62535;SDS011;48587;47.514;18.918;2022-07-29T16:03:17;4.80;;;2.50;;
62535;SDS011;48587;47.514;18.918;2022-07-29T16:08:17;5.70;;;2.90;;
62535;SDS011;48587;47.514;18.918;2022-07-29T16:13:18;5.40;;;3.00;;
62535;SDS011;48587;47.514;18.918;2022-07-29T16:18:19;5.70;;;2.90;;
62535;SDS011;48587;47.514;18.918;2022-07-29T16:23:20;4.30;;;2.80;;
62535;SDS011;48587;47.514;18.918;2022-07-29T16:28:23;6.20;;;2.50;;
62535;SDS011;48587;47.514;18.918;2022-07-29T16:33:24;11.00;;;3.10;;
62535;SDS011;48587;47.514;18.918;2022-07-29T16:38:25;5.30;;;2.60;;
62535;SDS011;48587;47.514;18.918;2022-07-29T16:43:26;4.10;;;2.80;;
62535;SDS011;48587;47.514;18.918;2022-07-29T16:48:27;3.60;;;2.90;;
62535;SDS011;48587;47.514;18.918;2022-07-29T16:53:27;5.60;;;2.60;;
62535;SDS011;48587;47.514;18.918;2022-07-29T16:58:29;8.20;;;2.80;;
62535;SDS011;48587;47.514;18.918;2022-07-29T17:03:30;6.00;;;2.90;;
62535;SDS011;48587;47.514;18.918;2022-07-29T17:08:31;5.90;;;2.70;;
62535;SDS011;48587;47.514;18.918;2022-07-29T17:13:32;8.90;;;2.90;;
62535;SDS011;48587;47.514;18.918;2022-07-29T17:18:33;7.90;;;3.30;;
62535;SDS011;48587;47.514;18.918;2022-07-29T17:23:33;4.30;;;2.90;;
62535;SDS011;48587;47.514;18.918;2022-07-29T17:28:34;4.90;;;3.00;;
62535;SDS011;48587;47.514;18.918;2022-07-29T17:33:35;5.10;;;2.70;;
62535;SDS011;48587;47.514;18.918;2022-07-29T17:38:36;6.20;;;3.30;;
62535;SDS011;48587;47.514;18.918;2022-07-29T17:43:37;6.50;;;3.40;;
62535;SDS011;48587;47.514;18.918;2022-07-29T17:48:38;9.60;;;3.30;;
62535;SDS011;48587;47.514;18.918;2022-07-29T17:53:39;18.30;;;3.70;;
62535;SDS011;48587;47.514;18.918;2022-07-29T17:58:40;8.10;;;3.20;;
62535;SDS011;48587;47.514;18.918;2022-07-29T18:03:41;6.30;;;2.80;;
62535;SDS011;48587;47.514;18.918;2022-07-29T18:08:43;7.20;;;3.10;;
62535;SDS011;48587;47.514;18.918;2022-07-29T18:13:46;5.50;;;2.90;;
62535;SDS011;48587;47.514;18.918;2022-07-29T18:18:47;3.70;;;2.90;;
62535;SDS011;48587;47.514;18.918;2022-07-29T18:23:48;11.60;;;3.60;;
62535;SDS011;48587;47.514;18.918;2022-07-29T18:28:51;17.60;;;3.60;;
62535;SDS011;48587;47.514;18.918;2022-07-29T18:33:52;10.10;;;3.50;;
62535;SDS011;48587;47.514;18.918;2022-07-29T18:38:53;8.50;;;3.40;;
62535;SDS011;48587;47.514;18.918;2022-07-29T18:43:54;8.20;;;3.50;;
62535;SDS011;48587;47.514;18.918;2022-07-29T18:48:55;6.60;;;3.10;;
62535;SDS011;48587;47.514;18.918;2022-07-29T18:53:56;11.70;;;3.90;;
62535;SDS011;48587;47.514;18.918;2022-07-29T18:58:57;7.70;;;3.20;;
62535;SDS011;48587;47.514;18.918;2022-07-29T19:03:58;3.80;;;2.70;;
62535;SDS011;48587;47.514;18.918;2022-07-29T19:09:00;6.90;;;3.30;;
62535;SDS011;48587;47.514;18.918;2022-07-29T19:14:01;7.00;;;3.30;;
62535;SDS011;48587;47.514;18.918;2022-07-29T19:19:02;4.20;;;3.00;;
62535;SDS011;48587;47.514;18.918;2022-07-29T19:24:04;4.30;;;3.00;;
62535;SDS011;48587;47.514;18.918;2022-07-29T19:29:06;7.00;;;3.30;;
62535;SDS011;48587;47.514;18.918;2022-07-29T19:34:07;4.10;;;2.90;;
62535;SDS011;48587;47.514;18.918;2022-07-29T19:39:08;6.80;;;2.90;;
62535;SDS011;48587;47.514;18.918;2022-07-29T19:44:09;14.00;;;4.60;;
62535;SDS011;48587;47.514;18.918;2022-07-29T19:49:13;10.20;;;3.50;;
62535;SDS011;48587;47.514;18.918;2022-07-29T19:54:14;5.20;;;3.30;;
62535;SDS011;48587;47.514;18.918;2022-07-29T19:59:17;3.80;;;3.00;;
62535;SDS011;48587;47.514;18.918;2022-07-29T20:04:18;7.80;;;3.10;;
62535;SDS011;48587;47.514;18.918;2022-07-29T20:09:19;6.60;;;2.90;;
62535;SDS011;48587;47.514;18.918;2022-07-29T20:14:20;4.60;;;2.70;;
62535;SDS011;48587;47.514;18.918;2022-07-29T20:19:21;3.60;;;3.10;;
62535;SDS011;48587;47.514;18.918;2022-07-29T20:24:22;4.00;;;3.20;;
62535;SDS011;48587;47.514;18.918;2022-07-29T20:29:23;3.90;;;3.00;;
62535;SDS011;48587;47.514;18.918;2022-07-29T20:34:24;3.70;;;3.10;;
62535;SDS011;48587;47.514;18.918;2022-07-29T20:39:26;4.80;;;3.20;;
62535;SDS011;48587;47.514;18.918;2022-07-29T20:44:27;4.10;;;3.10;;
62535;SDS011;48587;47.514;18.918;2022-07-29T20:49:28;9.30;;;3.20;;
62535;SDS011;48587;47.514;18.918;2022-07-29T20:54:29;5.70;;;3.10;;
62535;SDS011;48587;47.514;18.918;2022-07-29T20:59:30;4.60;;;3.00;;
62535;SDS011;48587;47.514;18.918;2022-07-29T21:04:32;4.10;;;3.00;;
62535;SDS011;48587;47.514;18.918;2022-07-29T21:09:33;3.90;;;3.10;;
62535;SDS011;48587;47.514;18.918;2022-07-29T21:14:34;5.30;;;3.30;;
62535;SDS011;48587;47.514;18.918;2022-07-29T21:19:36;3.80;;;3.30;;
62535;SDS011;48587;47.514;18.918;2022-07-29T21:24:37;7.20;;;3.70;;
62535;SDS011;48587;47.514;18.918;2022-07-29T21:29:38;4.60;;;3.20;;
62535;SDS011;48587;47.514;18.918;2022-07-29T21:34:39;5.10;;;3.20;;
62535;SDS011;48587;47.514;18.918;2022-07-29T21:39:40;4.60;;;3.30;;
62535;SDS011;48587;47.514;18.918;2022-07-29T21:44:41;5.90;;;3.20;;
62535;SDS011;48587;47.514;18.918;2022-07-29T21:49:43;3.80;;;3.30;;
62535;SDS011;48587;47.514;18.918;2022-07-29T21:54:45;5.80;;;3.50;;
62535;SDS011;48587;47.514;18.918;2022-07-29T21:59:46;6.50;;;3.10;;
62535;SDS011;48587;47.514;18.918;2022-07-29T22:04:48;5.50;;;3.40;;
62535;SDS011;48587;47.514;18.918;2022-07-29T22:09:49;5.80;;;2.90;;
62535;SDS011;48587;47.514;18.918;2022-07-29T22:14:50;5.80;;;3.20;;
62535;SDS011;48587;47.514;18.918;2022-07-29T22:19:51;4.60;;;3.50;;
62535;SDS011;48587;47.514;18.918;2022-07-29T22:24:52;4.90;;;3.20;;
62535;SDS011;48587;47.514;18.918;2022-07-29T22:29:55;4.70;;;3.20;;
62535;SDS011;48587;47.514;18.918;2022-07-29T22:34:56;4.50;;;3.40;;
62535;SDS011;48587;47.514;18.918;2022-07-29T22:39:57;4.40;;;3.60;;
62535;SDS011;48587;47.514;18.918;2022-07-29T22:44:58;8.50;;;3.50;;
62535;SDS011;48587;47.514;18.918;2022-07-29T22:49:59;4.10;;;3.50;;
62535;SDS011;48587;47.514;18.918;2022-07-29T22:55:00;6.20;;;3.90;;
62535;SDS011;48587;47.514;18.918;2022-07-29T23:00:02;4.20;;;3.30;;
62535;SDS011;48587;47.514;18.918;2022-07-29T23:05:04;3.80;;;3.20;;
62535;SDS011;48587;47.514;18.918;2022-07-29T23:10:05;5.60;;;3.60;;
62535;SDS011;48587;47.514;18.918;2022-07-29T23:15:07;5.90;;;3.70;;
62535;SDS011;48587;47.514;18.918;2022-07-29T23:20:08;4.20;;;3.40;;
62535;SDS011;48587;47.514;18.918;2022-07-29T23:25:09;4.00;;;3.30;;
62535;SDS011;48587;47.514;18.918;2022-07-29T23:30:10;5.90;;;3.30;;
62535;SDS011;48587;47.514;18.918;2022-07-29T23:35:11;6.70;;;3.40;;
62535;SDS011;48587;47.514;18.918;2022-07-29T23:40:12;4.70;;;3.50;;
62535;SDS011;48587;47.514;18.918;2022-07-29T23:45:14;5.00;;;3.70;;
62535;SDS011;48587;47.514;18.918;2022-07-29T23:50:15;4.80;;;3.70;;
62535;SDS011;48587;47.514;18.918;2022-07-29T23:55:16;4.30;;;3.50;;
